Rochdale, United Kingdom
Current Conditions -  °F | °C
As of 6:20 AM on Saturday 20 Dec 2014 (Local Time) from EGCC Reporting Station
Broken Clouds Broken Clouds  
Wind Chill: 36°   Ceiling: 2400
Heat Index: 45°   Visibility: 6mi
Dew Point: 39°   Wind: 23mph
Humidity: 81%   Direction: 280°W
Pressure: 30.09"   Gusts: NA
Location:  53.62°N, 2.17°W
Report Text: EGCC 200620Z 28020KT 240V300 9999 FEW018 BKN024 BKN031 07/04 Q1019 NOSIG
Loading
Personal Weather Stations






























Interactive Weather Map New forecast layout! Learn more

10-Day Weather Forecast

Advertisements
Track Severe Weather on mobile